< < Back
Terminal Aerodrome Forecast


Current Version              Previous Versions:   1  2  3  4  5  6  7  8  9  

Terminal Aerodrome Forecast

271
FTUS42 KJAX 271042 AAC
TAFGNV
TAF AMD
KGNV 271042Z 2711/2806 VRB04KT P6SM SCT015 BKN200
     FM271400 24012KT P6SM -SHRA OVC020
     FM271600 27014G22KT 5SM -SHRA VCTS BKN030CB
      TEMPO 2717/2720 VRB20G35KT 2SM TSRA BR BKN020CB
     FM272100 28012KT P6SM VCSH SCT025 BKN050
     FM272300 30010KT P6SM SCT050
     FM280200 32008KT P6SM SKC=

Latest METAR

107
SAUS70 KWBC 272100 RRE
MTRGNV
METAR KGNV 272053Z 24010G17KT 10SM SCT020 BKN060 22/17 A2975 RMK AO2
SLP073 60000 T02170172 56019


USA.gov is the U.S. government's official web portal to all federal, state and local government web resources and services.